sensor_id;sensor_type;location;lat;lon;timestamp;temperature;humidity
780;DHT22;373;49.342;8.146;2023-06-19T00:01:47;23.60;1.00
780;DHT22;373;49.342;8.146;2023-06-19T00:04:14;23.60;1.00
780;DHT22;373;49.342;8.146;2023-06-19T00:06:41;23.70;1.00
780;DHT22;373;49.342;8.146;2023-06-19T00:09:08;23.90;1.00
780;DHT22;373;49.342;8.146;2023-06-19T00:11:35;24.10;1.00
780;DHT22;373;49.342;8.146;2023-06-19T00:14:02;23.90;1.00
780;DHT22;373;49.342;8.146;2023-06-19T00:16:31;23.80;1.00
780;DHT22;373;49.342;8.146;2023-06-19T00:18:58;23.70;1.00
780;DHT22;373;49.342;8.146;2023-06-19T00:21:25;23.80;1.00
780;DHT22;373;49.342;8.146;2023-06-19T00:23:53;23.90;1.00
780;DHT22;373;49.342;8.146;2023-06-19T00:26:20;24.00;1.00
780;DHT22;373;49.342;8.146;2023-06-19T00:28:48;23.90;1.00
780;DHT22;373;49.342;8.146;2023-06-19T00:31:15;23.80;1.00
780;DHT22;373;49.342;8.146;2023-06-19T00:33:44;24.00;1.00
780;DHT22;373;49.342;8.146;2023-06-19T00:36:15;24.20;1.00
780;DHT22;373;49.342;8.146;2023-06-19T00:38:46;24.40;1.00
780;DHT22;373;49.342;8.146;2023-06-19T00:41:16;24.70;1.00
780;DHT22;373;49.342;8.146;2023-06-19T00:43:44;24.80;1.00
780;DHT22;373;49.342;8.146;2023-06-19T00:46:11;24.70;1.00
780;DHT22;373;49.342;8.146;2023-06-19T00:48:39;24.70;1.00
780;DHT22;373;49.342;8.146;2023-06-19T00:51:09;24.70;1.00
780;DHT22;373;49.342;8.146;2023-06-19T00:53:37;24.90;1.00
780;DHT22;373;49.342;8.146;2023-06-19T00:56:05;24.90;1.00
780;DHT22;373;49.342;8.146;2023-06-19T00:58:32;25.10;1.00
780;DHT22;373;49.342;8.146;2023-06-19T01:01:01;25.30;1.00
780;DHT22;373;49.342;8.146;2023-06-19T01:03:28;25.30;1.00
780;DHT22;373;49.342;8.146;2023-06-19T01:05:56;25.30;1.00
780;DHT22;373;49.342;8.146;2023-06-19T01:08:43;25.20;1.00
780;DHT22;373;49.342;8.146;2023-06-19T01:11:14;25.20;1.00
780;DHT22;373;49.342;8.146;2023-06-19T01:13:46;25.10;1.00
780;DHT22;373;49.342;8.146;2023-06-19T01:16:17;25.00;1.00
780;DHT22;373;49.342;8.146;2023-06-19T01:18:45;24.90;1.00
780;DHT22;373;49.342;8.146;2023-06-19T01:21:15;24.70;1.00
780;DHT22;373;49.342;8.146;2023-06-19T01:23:44;24.70;1.00
780;DHT22;373;49.342;8.146;2023-06-19T01:26:12;24.70;1.00
780;DHT22;373;49.342;8.146;2023-06-19T01:28:41;24.60;1.00
780;DHT22;373;49.342;8.146;2023-06-19T01:31:13;24.60;1.00
780;DHT22;373;49.342;8.146;2023-06-19T01:33:42;24.60;1.00
780;DHT22;373;49.342;8.146;2023-06-19T01:36:15;24.60;1.00
780;DHT22;373;49.342;8.146;2023-06-19T01:38:45;24.60;1.00
780;DHT22;373;49.342;8.146;2023-06-19T01:41:14;24.60;1.00
780;DHT22;373;49.342;8.146;2023-06-19T01:43:42;24.70;1.00
780;DHT22;373;49.342;8.146;2023-06-19T01:46:10;24.80;1.00
780;DHT22;373;49.342;8.146;2023-06-19T01:48:38;24.80;1.00
780;DHT22;373;49.342;8.146;2023-06-19T01:51:06;24.80;1.00
780;DHT22;373;49.342;8.146;2023-06-19T01:53:33;24.70;2.60
780;DHT22;373;49.342;8.146;2023-06-19T01:56:02;24.90;27.90
780;DHT22;373;49.342;8.146;2023-06-19T01:58:29;24.70;99.90
780;DHT22;373;49.342;8.146;2023-06-19T02:00:57;24.50;99.90
780;DHT22;373;49.342;8.146;2023-06-19T02:03:24;24.50;99.90
780;DHT22;373;49.342;8.146;2023-06-19T02:05:52;24.50;99.90
780;DHT22;373;49.342;8.146;2023-06-19T02:08:19;24.50;99.90
780;DHT22;373;49.342;8.146;2023-06-19T02:10:47;24.30;1.00
780;DHT22;373;49.342;8.146;2023-06-19T02:13:15;24.10;1.00
780;DHT22;373;49.342;8.146;2023-06-19T02:15:42;23.40;99.90
780;DHT22;373;49.342;8.146;2023-06-19T02:18:09;22.70;99.90
780;DHT22;373;49.342;8.146;2023-06-19T02:20:37;22.50;11.80
780;DHT22;373;49.342;8.146;2023-06-19T02:23:04;22.50;99.90
780;DHT22;373;49.342;8.146;2023-06-19T02:25:31;22.60;20.20
780;DHT22;373;49.342;8.146;2023-06-19T02:28:00;23.10;99.90
780;DHT22;373;49.342;8.146;2023-06-19T02:30:30;23.20;1.00
780;DHT22;373;49.342;8.146;2023-06-19T02:32:57;23.10;1.00
780;DHT22;373;49.342;8.146;2023-06-19T02:35:26;23.00;2.90
780;DHT22;373;49.342;8.146;2023-06-19T02:37:55;23.30;99.90
780;DHT22;373;49.342;8.146;2023-06-19T02:40:23;23.40;1.00
780;DHT22;373;49.342;8.146;2023-06-19T02:42:50;23.20;99.90
780;DHT22;373;49.342;8.146;2023-06-19T02:45:18;23.00;99.90
780;DHT22;373;49.342;8.146;2023-06-19T02:47:48;22.70;1.00
780;DHT22;373;49.342;8.146;2023-06-19T02:50:17;22.90;99.90
780;DHT22;373;49.342;8.146;2023-06-19T02:52:44;23.10;1.00
780;DHT22;373;49.342;8.146;2023-06-19T02:55:11;23.30;1.00
780;DHT22;373;49.342;8.146;2023-06-19T02:57:38;23.30;99.90
780;DHT22;373;49.342;8.146;2023-06-19T03:00:06;23.40;1.00
780;DHT22;373;49.342;8.146;2023-06-19T03:02:35;23.50;99.90
780;DHT22;373;49.342;8.146;2023-06-19T03:05:04;23.60;1.00
780;DHT22;373;49.342;8.146;2023-06-19T03:07:32;23.50;24.30
780;DHT22;373;49.342;8.146;2023-06-19T03:10:00;22.90;1.00
780;DHT22;373;49.342;8.146;2023-06-19T03:12:28;22.50;1.00
780;DHT22;373;49.342;8.146;2023-06-19T03:14:56;22.30;1.00
780;DHT22;373;49.342;8.146;2023-06-19T03:17:25;22.40;1.00
780;DHT22;373;49.342;8.146;2023-06-19T03:19:52;22.60;99.90
780;DHT22;373;49.342;8.146;2023-06-19T03:22:21;22.30;99.90
780;DHT22;373;49.342;8.146;2023-06-19T03:24:48;22.30;99.90
780;DHT22;373;49.342;8.146;2023-06-19T03:27:19;22.30;99.40
780;DHT22;373;49.342;8.146;2023-06-19T03:29:46;22.60;1.00
780;DHT22;373;49.342;8.146;2023-06-19T03:32:20;22.80;1.00
780;DHT22;373;49.342;8.146;2023-06-19T03:34:47;22.90;1.00
780;DHT22;373;49.342;8.146;2023-06-19T03:37:15;23.10;99.90
780;DHT22;373;49.342;8.146;2023-06-19T03:39:44;23.10;99.90
780;DHT22;373;49.342;8.146;2023-06-19T03:42:12;23.00;1.00
780;DHT22;373;49.342;8.146;2023-06-19T03:44:39;23.00;1.00
780;DHT22;373;49.342;8.146;2023-06-19T03:47:07;23.00;1.00
780;DHT22;373;49.342;8.146;2023-06-19T03:49:34;23.00;1.00
780;DHT22;373;49.342;8.146;2023-06-19T03:52:01;23.00;1.00
780;DHT22;373;49.342;8.146;2023-06-19T03:54:28;23.00;1.00
780;DHT22;373;49.342;8.146;2023-06-19T03:56:57;23.00;1.00
780;DHT22;373;49.342;8.146;2023-06-19T03:59:24;23.10;1.00
780;DHT22;373;49.342;8.146;2023-06-19T04:01:52;23.30;1.00
780;DHT22;373;49.342;8.146;2023-06-19T04:04:19;23.40;1.00
780;DHT22;373;49.342;8.146;2023-06-19T04:06:47;23.40;1.00
780;DHT22;373;49.342;8.146;2023-06-19T04:09:15;23.40;1.00
780;DHT22;373;49.342;8.146;2023-06-19T04:11:42;23.50;1.00
780;DHT22;373;49.342;8.146;2023-06-19T04:14:11;23.50;1.00
780;DHT22;373;49.342;8.146;2023-06-19T04:16:38;23.50;1.00
780;DHT22;373;49.342;8.146;2023-06-19T04:19:05;23.50;1.00
780;DHT22;373;49.342;8.146;2023-06-19T04:21:32;23.60;1.00
780;DHT22;373;49.342;8.146;2023-06-19T04:23:59;23.60;1.00
780;DHT22;373;49.342;8.146;2023-06-19T04:26:26;23.60;1.00
780;DHT22;373;49.342;8.146;2023-06-19T04:28:53;23.70;1.00
780;DHT22;373;49.342;8.146;2023-06-19T04:31:23;23.60;1.00
780;DHT22;373;49.342;8.146;2023-06-19T04:33:52;23.70;99.90
780;DHT22;373;49.342;8.146;2023-06-19T04:36:20;23.60;99.90
780;DHT22;373;49.342;8.146;2023-06-19T04:38:48;23.50;99.90
780;DHT22;373;49.342;8.146;2023-06-19T04:41:18;23.50;1.00
780;DHT22;373;49.342;8.146;2023-06-19T04:43:45;23.50;1.00
780;DHT22;373;49.342;8.146;2023-06-19T04:46:12;23.50;1.00
780;DHT22;373;49.342;8.146;2023-06-19T04:48:40;23.50;1.00
780;DHT22;373;49.342;8.146;2023-06-19T04:51:07;23.40;1.00
780;DHT22;373;49.342;8.146;2023-06-19T04:53:34;23.40;1.00
780;DHT22;373;49.342;8.146;2023-06-19T04:56:01;23.40;1.00
780;DHT22;373;49.342;8.146;2023-06-19T04:58:28;23.30;96.00
780;DHT22;373;49.342;8.146;2023-06-19T05:00:55;23.30;92.40
780;DHT22;373;49.342;8.146;2023-06-19T05:03:22;23.30;99.90
780;DHT22;373;49.342;8.146;2023-06-19T05:05:51;23.30;99.90
780;DHT22;373;49.342;8.146;2023-06-19T05:08:18;23.40;99.90
780;DHT22;373;49.342;8.146;2023-06-19T05:10:45;23.60;4.80
780;DHT22;373;49.342;8.146;2023-06-19T05:13:12;23.50;99.90
780;DHT22;373;49.342;8.146;2023-06-19T05:15:39;23.80;1.00
780;DHT22;373;49.342;8.146;2023-06-19T05:18:06;23.80;1.00
780;DHT22;373;49.342;8.146;2023-06-19T05:20:33;24.00;1.00
780;DHT22;373;49.342;8.146;2023-06-19T05:23:01;23.80;67.10
780;DHT22;373;49.342;8.146;2023-06-19T05:25:28;23.80;74.40
780;DHT22;373;49.342;8.146;2023-06-19T05:27:55;23.90;90.60
780;DHT22;373;49.342;8.146;2023-06-19T05:30:23;24.00;64.90
780;DHT22;373;49.342;8.146;2023-06-19T05:32:50;24.10;1.00
780;DHT22;373;49.342;8.146;2023-06-19T05:35:17;24.10;1.00
780;DHT22;373;49.342;8.146;2023-06-19T05:37:45;23.90;30.20
780;DHT22;373;49.342;8.146;2023-06-19T05:40:14;23.70;99.90
780;DHT22;373;49.342;8.146;2023-06-19T05:42:41;23.40;1.00
780;DHT22;373;49.342;8.146;2023-06-19T05:45:08;23.40;1.00
780;DHT22;373;49.342;8.146;2023-06-19T05:47:35;23.40;1.50
780;DHT22;373;49.342;8.146;2023-06-19T05:50:03;23.40;99.90
780;DHT22;373;49.342;8.146;2023-06-19T05:52:30;23.50;99.90
780;DHT22;373;49.342;8.146;2023-06-19T05:54:57;23.60;6.30
780;DHT22;373;49.342;8.146;2023-06-19T05:57:27;23.50;1.00
780;DHT22;373;49.342;8.146;2023-06-19T05:59:54;23.60;1.00
780;DHT22;373;49.342;8.146;2023-06-19T06:02:21;23.80;1.00
780;DHT22;373;49.342;8.146;2023-06-19T06:04:48;24.10;99.90
780;DHT22;373;49.342;8.146;2023-06-19T06:07:15;24.10;99.90
780;DHT22;373;49.342;8.146;2023-06-19T06:09:42;24.20;99.90
780;DHT22;373;49.342;8.146;2023-06-19T06:12:10;24.50;99.90
780;DHT22;373;49.342;8.146;2023-06-19T06:14:40;24.30;99.90
780;DHT22;373;49.342;8.146;2023-06-19T06:17:08;24.60;85.20
780;DHT22;373;49.342;8.146;2023-06-19T06:19:35;24.20;73.50
780;DHT22;373;49.342;8.146;2023-06-19T06:22:05;23.90;1.00
780;DHT22;373;49.342;8.146;2023-06-19T06:28:12;24.40;99.90
780;DHT22;373;49.342;8.146;2023-06-19T06:41:53;25.80;1.00
780;DHT22;373;49.342;8.146;2023-06-19T06:44:22;26.40;99.90
780;DHT22;373;49.342;8.146;2023-06-19T06:46:49;26.00;99.90
780;DHT22;373;49.342;8.146;2023-06-19T06:49:16;26.10;99.90
780;DHT22;373;49.342;8.146;2023-06-19T06:51:43;25.60;99.90
780;DHT22;373;49.342;8.146;2023-06-19T06:54:10;25.30;1.00
780;DHT22;373;49.342;8.146;2023-06-19T06:56:37;25.60;1.00
780;DHT22;373;49.342;8.146;2023-06-19T06:59:05;26.00;99.90
780;DHT22;373;49.342;8.146;2023-06-19T07:01:32;26.60;99.90
780;DHT22;373;49.342;8.146;2023-06-19T07:03:59;27.20;99.90
780;DHT22;373;49.342;8.146;2023-06-19T07:06:26;27.20;99.90
780;DHT22;373;49.342;8.146;2023-06-19T07:08:53;27.20;99.90
780;DHT22;373;49.342;8.146;2023-06-19T07:11:21;27.10;99.90
780;DHT22;373;49.342;8.146;2023-06-19T07:13:48;26.90;99.90
780;DHT22;373;49.342;8.146;2023-06-19T07:16:16;27.10;99.90
780;DHT22;373;49.342;8.146;2023-06-19T07:18:43;27.60;99.90
780;DHT22;373;49.342;8.146;2023-06-19T07:21:11;27.90;99.90
780;DHT22;373;49.342;8.146;2023-06-19T07:23:39;28.10;99.90
780;DHT22;373;49.342;8.146;2023-06-19T07:26:07;28.30;99.90
780;DHT22;373;49.342;8.146;2023-06-19T07:28:34;29.00;99.90
780;DHT22;373;49.342;8.146;2023-06-19T07:31:02;28.10;99.90
780;DHT22;373;49.342;8.146;2023-06-19T07:33:30;27.30;99.90
780;DHT22;373;49.342;8.146;2023-06-19T07:35:57;27.40;99.90
780;DHT22;373;49.342;8.146;2023-06-19T07:38:24;27.50;99.90
780;DHT22;373;49.342;8.146;2023-06-19T07:40:51;27.30;99.90
780;DHT22;373;49.342;8.146;2023-06-19T07:43:18;27.30;99.90
780;DHT22;373;49.342;8.146;2023-06-19T07:45:48;26.90;99.90
780;DHT22;373;49.342;8.146;2023-06-19T07:48:15;27.00;99.90
780;DHT22;373;49.342;8.146;2023-06-19T07:50:43;27.30;99.90
780;DHT22;373;49.342;8.146;2023-06-19T07:53:11;26.90;99.90
780;DHT22;373;49.342;8.146;2023-06-19T07:55:38;26.30;99.90
780;DHT22;373;49.342;8.146;2023-06-19T07:58:05;26.40;99.90
780;DHT22;373;49.342;8.146;2023-06-19T08:00:32;26.30;99.90
780;DHT22;373;49.342;8.146;2023-06-19T08:02:59;26.60;99.90
780;DHT22;373;49.342;8.146;2023-06-19T08:05:26;26.20;99.90
780;DHT22;373;49.342;8.146;2023-06-19T08:07:56;26.50;99.90
780;DHT22;373;49.342;8.146;2023-06-19T08:10:23;27.00;99.90
780;DHT22;373;49.342;8.146;2023-06-19T08:12:50;27.30;99.90
780;DHT22;373;49.342;8.146;2023-06-19T08:15:17;27.30;99.90
780;DHT22;373;49.342;8.146;2023-06-19T08:17:44;27.30;99.90
780;DHT22;373;49.342;8.146;2023-06-19T08:20:13;26.60;99.90
780;DHT22;373;49.342;8.146;2023-06-19T08:22:40;25.70;99.90
780;DHT22;373;49.342;8.146;2023-06-19T08:25:09;25.80;99.90
780;DHT22;373;49.342;8.146;2023-06-19T08:27:36;26.00;99.90
780;DHT22;373;49.342;8.146;2023-06-19T08:30:04;26.00;99.90
780;DHT22;373;49.342;8.146;2023-06-19T08:32:31;26.20;99.90
780;DHT22;373;49.342;8.146;2023-06-19T08:35:00;26.50;99.90
780;DHT22;373;49.342;8.146;2023-06-19T08:37:27;26.60;99.90
780;DHT22;373;49.342;8.146;2023-06-19T08:39:54;26.50;99.90
780;DHT22;373;49.342;8.146;2023-06-19T08:42:23;26.70;99.90
780;DHT22;373;49.342;8.146;2023-06-19T08:44:50;27.10;99.90
780;DHT22;373;49.342;8.146;2023-06-19T08:47:18;27.20;99.90
780;DHT22;373;49.342;8.146;2023-06-19T08:49:45;27.00;99.90
780;DHT22;373;49.342;8.146;2023-06-19T08:52:12;27.00;99.90
780;DHT22;373;49.342;8.146;2023-06-19T08:54:39;26.80;99.90
780;DHT22;373;49.342;8.146;2023-06-19T08:57:09;26.50;99.90
780;DHT22;373;49.342;8.146;2023-06-19T08:59:39;26.20;99.90
780;DHT22;373;49.342;8.146;2023-06-19T09:02:06;25.90;99.90
780;DHT22;373;49.342;8.146;2023-06-19T09:04:33;26.00;99.90
780;DHT22;373;49.342;8.146;2023-06-19T09:07:01;26.10;99.90
780;DHT22;373;49.342;8.146;2023-06-19T09:09:37;25.70;99.90
780;DHT22;373;49.342;8.146;2023-06-19T09:12:06;26.10;99.90
780;DHT22;373;49.342;8.146;2023-06-19T09:14:40;26.30;99.90
780;DHT22;373;49.342;8.146;2023-06-19T09:17:10;26.90;99.90
780;DHT22;373;49.342;8.146;2023-06-19T09:19:37;27.50;99.90
780;DHT22;373;49.342;8.146;2023-06-19T09:22:07;27.90;99.90
780;DHT22;373;49.342;8.146;2023-06-19T09:24:35;28.00;99.90
780;DHT22;373;49.342;8.146;2023-06-19T09:27:09;28.30;99.90
780;DHT22;373;49.342;8.146;2023-06-19T09:29:41;28.60;99.90
780;DHT22;373;49.342;8.146;2023-06-19T09:32:16;28.70;99.90
780;DHT22;373;49.342;8.146;2023-06-19T09:34:44;28.20;99.90
780;DHT22;373;49.342;8.146;2023-06-19T09:37:11;28.30;99.90
780;DHT22;373;49.342;8.146;2023-06-19T09:39:39;28.60;99.70
780;DHT22;373;49.342;8.146;2023-06-19T09:42:09;28.20;99.60
780;DHT22;373;49.342;8.146;2023-06-19T09:44:41;28.10;99.80
780;DHT22;373;49.342;8.146;2023-06-19T09:47:15;28.00;99.90
780;DHT22;373;49.342;8.146;2023-06-19T09:49:48;28.10;99.90
780;DHT22;373;49.342;8.146;2023-06-19T09:52:17;28.30;99.90
780;DHT22;373;49.342;8.146;2023-06-19T09:54:46;28.40;99.90
780;DHT22;373;49.342;8.146;2023-06-19T09:57:13;28.70;94.30
780;DHT22;373;49.342;8.146;2023-06-19T09:59:42;28.70;85.90
780;DHT22;373;49.342;8.146;2023-06-19T10:02:10;29.20;93.90
780;DHT22;373;49.342;8.146;2023-06-19T10:04:50;29.90;77.30
780;DHT22;373;49.342;8.146;2023-06-19T10:07:22;30.40;53.90
780;DHT22;373;49.342;8.146;2023-06-19T10:09:59;29.90;50.00
780;DHT22;373;49.342;8.146;2023-06-19T10:12:37;29.20;69.90
780;DHT22;373;49.342;8.146;2023-06-19T10:15:17;28.00;95.60
780;DHT22;373;49.342;8.146;2023-06-19T10:17:47;27.60;99.90
780;DHT22;373;49.342;8.146;2023-06-19T10:20:28;27.20;99.90
780;DHT22;373;49.342;8.146;2023-06-19T10:23:00;27.60;99.90
780;DHT22;373;49.342;8.146;2023-06-19T10:25:31;28.00;99.90
780;DHT22;373;49.342;8.146;2023-06-19T10:27:59;28.00;99.90
780;DHT22;373;49.342;8.146;2023-06-19T10:30:28;27.40;99.90
780;DHT22;373;49.342;8.146;2023-06-19T10:32:56;27.50;99.90
780;DHT22;373;49.342;8.146;2023-06-19T10:35:23;27.40;99.90
780;DHT22;373;49.342;8.146;2023-06-19T10:37:51;27.00;99.90
780;DHT22;373;49.342;8.146;2023-06-19T10:40:18;27.50;99.90
780;DHT22;373;49.342;8.146;2023-06-19T10:42:45;27.10;99.90
780;DHT22;373;49.342;8.146;2023-06-19T10:45:14;27.00;99.90
780;DHT22;373;49.342;8.146;2023-06-19T10:47:44;26.60;99.90
780;DHT22;373;49.342;8.146;2023-06-19T10:50:12;27.10;99.90
780;DHT22;373;49.342;8.146;2023-06-19T10:52:40;27.70;99.90
780;DHT22;373;49.342;8.146;2023-06-19T10:55:09;27.50;99.90
780;DHT22;373;49.342;8.146;2023-06-19T10:57:37;27.40;99.90
780;DHT22;373;49.342;8.146;2023-06-19T11:00:05;27.90;99.90
780;DHT22;373;49.342;8.146;2023-06-19T11:02:37;28.20;99.90
780;DHT22;373;49.342;8.146;2023-06-19T11:05:08;28.70;99.90
780;DHT22;373;49.342;8.146;2023-06-19T11:07:35;28.40;99.90
780;DHT22;373;49.342;8.146;2023-06-19T11:10:03;28.10;99.90
780;DHT22;373;49.342;8.146;2023-06-19T11:12:31;28.00;99.90
780;DHT22;373;49.342;8.146;2023-06-19T11:14:59;28.00;99.90
780;DHT22;373;49.342;8.146;2023-06-19T11:17:26;28.50;99.90
780;DHT22;373;49.342;8.146;2023-06-19T11:19:53;28.70;99.90
780;DHT22;373;49.342;8.146;2023-06-19T11:22:35;29.00;99.90
780;DHT22;373;49.342;8.146;2023-06-19T11:25:04;28.90;99.90
780;DHT22;373;49.342;8.146;2023-06-19T11:27:31;28.90;99.90
780;DHT22;373;49.342;8.146;2023-06-19T11:30:00;29.00;99.90
780;DHT22;373;49.342;8.146;2023-06-19T11:32:31;28.80;99.90
780;DHT22;373;49.342;8.146;2023-06-19T11:35:05;28.20;99.90
780;DHT22;373;49.342;8.146;2023-06-19T11:37:34;28.10;99.90
780;DHT22;373;49.342;8.146;2023-06-19T11:40:02;28.00;99.90
780;DHT22;373;49.342;8.146;2023-06-19T11:42:48;27.70;99.90
780;DHT22;373;49.342;8.146;2023-06-19T11:45:15;27.30;99.90
780;DHT22;373;49.342;8.146;2023-06-19T11:47:44;27.40;99.90
780;DHT22;373;49.342;8.146;2023-06-19T11:50:12;27.80;99.90
780;DHT22;373;49.342;8.146;2023-06-19T11:52:46;28.00;99.90
780;DHT22;373;49.342;8.146;2023-06-19T11:55:17;28.00;99.90
780;DHT22;373;49.342;8.146;2023-06-19T11:57:44;28.10;99.90
780;DHT22;373;49.342;8.146;2023-06-19T12:00:15;28.30;99.90
780;DHT22;373;49.342;8.146;2023-06-19T12:02:44;28.60;99.90
780;DHT22;373;49.342;8.146;2023-06-19T12:05:13;28.80;99.90
780;DHT22;373;49.342;8.146;2023-06-19T12:07:42;28.80;97.30
780;DHT22;373;49.342;8.146;2023-06-19T12:10:10;28.90;94.70
780;DHT22;373;49.342;8.146;2023-06-19T12:12:38;29.10;90.40
780;DHT22;373;49.342;8.146;2023-06-19T12:15:06;29.70;78.60
780;DHT22;373;49.342;8.146;2023-06-19T12:17:34;30.10;52.60
780;DHT22;373;49.342;8.146;2023-06-19T12:20:01;30.50;45.40
780;DHT22;373;49.342;8.146;2023-06-19T12:22:31;31.00;47.30
780;DHT22;373;49.342;8.146;2023-06-19T12:25:00;31.30;27.20
780;DHT22;373;49.342;8.146;2023-06-19T12:27:27;31.70;12.90
780;DHT22;373;49.342;8.146;2023-06-19T12:29:55;31.80;13.50
780;DHT22;373;49.342;8.146;2023-06-19T12:32:22;31.70;7.50
780;DHT22;373;49.342;8.146;2023-06-19T12:34:49;32.10;1.00
780;DHT22;373;49.342;8.146;2023-06-19T12:37:20;32.00;1.00
780;DHT22;373;49.342;8.146;2023-06-19T12:39:47;32.40;1.00
780;DHT22;373;49.342;8.146;2023-06-19T12:42:16;32.40;1.00
780;DHT22;373;49.342;8.146;2023-06-19T12:44:43;32.30;1.00
780;DHT22;373;49.342;8.146;2023-06-19T12:47:10;32.30;1.00
780;DHT22;373;49.342;8.146;2023-06-19T12:49:38;32.00;1.00
780;DHT22;373;49.342;8.146;2023-06-19T12:52:06;31.70;1.00
780;DHT22;373;49.342;8.146;2023-06-19T12:54:33;31.00;1.00
780;DHT22;373;49.342;8.146;2023-06-19T12:57:01;30.60;1.00
780;DHT22;373;49.342;8.146;2023-06-19T12:59:29;30.90;1.00
780;DHT22;373;49.342;8.146;2023-06-19T13:01:58;31.00;1.00
780;DHT22;373;49.342;8.146;2023-06-19T13:04:25;31.20;1.00
780;DHT22;373;49.342;8.146;2023-06-19T13:06:52;30.20;1.00
780;DHT22;373;49.342;8.146;2023-06-19T13:09:19;29.90;1.00
780;DHT22;373;49.342;8.146;2023-06-19T13:11:46;29.80;1.00
780;DHT22;373;49.342;8.146;2023-06-19T13:14:15;30.20;1.00
780;DHT22;373;49.342;8.146;2023-06-19T13:16:43;30.30;1.00
780;DHT22;373;49.342;8.146;2023-06-19T13:19:10;30.10;1.00
780;DHT22;373;49.342;8.146;2023-06-19T13:21:37;30.00;1.00
780;DHT22;373;49.342;8.146;2023-06-19T13:24:05;30.20;1.00
780;DHT22;373;49.342;8.146;2023-06-19T13:26:32;30.30;1.00
780;DHT22;373;49.342;8.146;2023-06-19T13:28:59;30.50;1.00
780;DHT22;373;49.342;8.146;2023-06-19T13:31:26;30.80;1.00
780;DHT22;373;49.342;8.146;2023-06-19T13:33:55;30.60;1.00
780;DHT22;373;49.342;8.146;2023-06-19T13:36:22;30.50;1.00
780;DHT22;373;49.342;8.146;2023-06-19T13:38:52;30.60;1.00
780;DHT22;373;49.342;8.146;2023-06-19T13:41:19;31.00;1.00
780;DHT22;373;49.342;8.146;2023-06-19T13:43:49;30.40;1.00
780;DHT22;373;49.342;8.146;2023-06-19T13:46:16;30.60;1.00
780;DHT22;373;49.342;8.146;2023-06-19T13:48:43;30.80;1.00
780;DHT22;373;49.342;8.146;2023-06-19T13:51:15;30.60;1.00
780;DHT22;373;49.342;8.146;2023-06-19T13:53:43;30.30;1.00
780;DHT22;373;49.342;8.146;2023-06-19T13:56:10;30.20;1.00
780;DHT22;373;49.342;8.146;2023-06-19T13:58:37;30.10;1.00
780;DHT22;373;49.342;8.146;2023-06-19T14:01:04;30.10;1.00
780;DHT22;373;49.342;8.146;2023-06-19T14:03:31;30.00;1.00
780;DHT22;373;49.342;8.146;2023-06-19T14:05:58;30.10;1.00
780;DHT22;373;49.342;8.146;2023-06-19T14:08:27;30.30;1.00
780;DHT22;373;49.342;8.146;2023-06-19T14:10:55;30.50;1.00
780;DHT22;373;49.342;8.146;2023-06-19T14:13:22;30.20;1.00
780;DHT22;373;49.342;8.146;2023-06-19T14:15:49;29.60;1.00
780;DHT22;373;49.342;8.146;2023-06-19T14:18:18;29.40;1.00
780;DHT22;373;49.342;8.146;2023-06-19T14:20:45;29.50;1.00
780;DHT22;373;49.342;8.146;2023-06-19T14:23:12;29.60;1.00
780;DHT22;373;49.342;8.146;2023-06-19T14:25:41;29.60;1.00
780;DHT22;373;49.342;8.146;2023-06-19T14:28:08;29.50;1.00
780;DHT22;373;49.342;8.146;2023-06-19T14:30:36;29.40;1.00
780;DHT22;373;49.342;8.146;2023-06-19T14:33:03;29.00;1.00
780;DHT22;373;49.342;8.146;2023-06-19T14:35:30;29.20;1.00
780;DHT22;373;49.342;8.146;2023-06-19T14:37:57;29.50;1.00
780;DHT22;373;49.342;8.146;2023-06-19T14:40:25;29.70;1.00
780;DHT22;373;49.342;8.146;2023-06-19T14:42:54;29.60;1.00
780;DHT22;373;49.342;8.146;2023-06-19T14:45:21;29.30;1.00
780;DHT22;373;49.342;8.146;2023-06-19T14:47:48;29.80;1.00
780;DHT22;373;49.342;8.146;2023-06-19T14:50:15;30.30;1.00
780;DHT22;373;49.342;8.146;2023-06-19T14:52:42;30.40;1.00
780;DHT22;373;49.342;8.146;2023-06-19T14:55:10;30.20;1.00
780;DHT22;373;49.342;8.146;2023-06-19T14:57:37;30.30;1.00
780;DHT22;373;49.342;8.146;2023-06-19T15:00:06;30.30;1.00
780;DHT22;373;49.342;8.146;2023-06-19T15:02:34;30.20;1.00
780;DHT22;373;49.342;8.146;2023-06-19T15:05:01;29.80;1.00
780;DHT22;373;49.342;8.146;2023-06-19T15:07:28;29.80;1.00
780;DHT22;373;49.342;8.146;2023-06-19T15:09:55;30.10;1.00
780;DHT22;373;49.342;8.146;2023-06-19T15:12:22;29.90;1.00
780;DHT22;373;49.342;8.146;2023-06-19T15:14:50;29.80;1.00
780;DHT22;373;49.342;8.146;2023-06-19T15:17:18;29.60;1.00
780;DHT22;373;49.342;8.146;2023-06-19T15:19:45;29.60;1.00
780;DHT22;373;49.342;8.146;2023-06-19T15:22:12;29.90;2.90
780;DHT22;373;49.342;8.146;2023-06-19T15:24:39;30.00;1.00
780;DHT22;373;49.342;8.146;2023-06-19T15:27:06;30.10;1.00
780;DHT22;373;49.342;8.146;2023-06-19T15:29:33;30.00;1.00
780;DHT22;373;49.342;8.146;2023-06-19T15:32:01;30.20;1.00
780;DHT22;373;49.342;8.146;2023-06-19T15:34:29;30.00;1.00
780;DHT22;373;49.342;8.146;2023-06-19T15:36:56;30.00;1.00
780;DHT22;373;49.342;8.146;2023-06-19T15:39:23;30.00;1.00
780;DHT22;373;49.342;8.146;2023-06-19T15:41:50;30.00;1.00
780;DHT22;373;49.342;8.146;2023-06-19T15:44:17;29.90;4.70
780;DHT22;373;49.342;8.146;2023-06-19T15:46:44;29.60;10.40
780;DHT22;373;49.342;8.146;2023-06-19T15:49:12;29.20;17.30
780;DHT22;373;49.342;8.146;2023-06-19T15:51:42;29.50;24.80
780;DHT22;373;49.342;8.146;2023-06-19T15:54:09;29.40;25.30
780;DHT22;373;49.342;8.146;2023-06-19T15:56:38;29.60;34.20
780;DHT22;373;49.342;8.146;2023-06-19T15:59:08;29.80;31.90
780;DHT22;373;49.342;8.146;2023-06-19T16:01:35;30.20;48.40
780;DHT22;373;49.342;8.146;2023-06-19T16:04:02;30.20;47.80
780;DHT22;373;49.342;8.146;2023-06-19T16:06:29;30.40;41.40
780;DHT22;373;49.342;8.146;2023-06-19T16:08:57;30.10;38.30
780;DHT22;373;49.342;8.146;2023-06-19T16:11:25;29.80;28.20
780;DHT22;373;49.342;8.146;2023-06-19T16:13:52;29.80;28.00
780;DHT22;373;49.342;8.146;2023-06-19T16:16:20;29.90;29.40
780;DHT22;373;49.342;8.146;2023-06-19T16:18:47;29.90;26.00
780;DHT22;373;49.342;8.146;2023-06-19T16:21:14;29.70;21.30
780;DHT22;373;49.342;8.146;2023-06-19T16:23:42;29.70;16.90
780;DHT22;373;49.342;8.146;2023-06-19T16:26:11;29.80;16.10
780;DHT22;373;49.342;8.146;2023-06-19T16:28:38;29.80;15.40
780;DHT22;373;49.342;8.146;2023-06-19T16:31:05;29.80;14.60
780;DHT22;373;49.342;8.146;2023-06-19T16:33:33;29.70;16.70
780;DHT22;373;49.342;8.146;2023-06-19T16:36:01;29.60;14.40
780;DHT22;373;49.342;8.146;2023-06-19T16:38:28;29.60;14.20
780;DHT22;373;49.342;8.146;2023-06-19T16:40:55;29.60;12.70
780;DHT22;373;49.342;8.146;2023-06-19T16:43:23;29.90;6.60
780;DHT22;373;49.342;8.146;2023-06-19T16:45:50;30.10;8.20
780;DHT22;373;49.342;8.146;2023-06-19T16:48:18;30.10;6.00
780;DHT22;373;49.342;8.146;2023-06-19T16:50:45;30.00;5.70
780;DHT22;373;49.342;8.146;2023-06-19T16:53:12;30.00;4.40
780;DHT22;373;49.342;8.146;2023-06-19T16:55:39;30.30;1.80
780;DHT22;373;49.342;8.146;2023-06-19T16:58:06;30.30;5.90
780;DHT22;373;49.342;8.146;2023-06-19T17:00:35;30.50;1.00
780;DHT22;373;49.342;8.146;2023-06-19T17:03:02;30.50;1.00